sensor_id;sensor_type;location;lat;lon;timestamp;P1;durP1;ratioP1;P2;durP2;ratioP2
11121;SDS011;5615;49.304;10.576;2022-12-05T00:02:09;40.97;;;25.60;;
11121;SDS011;5615;49.304;10.576;2022-12-05T00:04:36;41.83;;;25.43;;
11121;SDS011;5615;49.304;10.576;2022-12-05T00:07:02;44.27;;;25.00;;
11121;SDS011;5615;49.304;10.576;2022-12-05T00:09:29;43.20;;;26.17;;
11121;SDS011;5615;49.304;10.576;2022-12-05T00:11:56;43.67;;;24.60;;
11121;SDS011;5615;49.304;10.576;2022-12-05T00:14:23;46.40;;;26.80;;
11121;SDS011;5615;49.304;10.576;2022-12-05T00:16:50;47.57;;;27.47;;
11121;SDS011;5615;49.304;10.576;2022-12-05T00:19:17;45.70;;;26.30;;
11121;SDS011;5615;49.304;10.576;2022-12-05T00:21:43;44.47;;;26.57;;
11121;SDS011;5615;49.304;10.576;2022-12-05T00:24:11;47.23;;;26.13;;
11121;SDS011;5615;49.304;10.576;2022-12-05T00:26:39;40.63;;;25.53;;
11121;SDS011;5615;49.304;10.576;2022-12-05T00:29:06;49.30;;;27.80;;
11121;SDS011;5615;49.304;10.576;2022-12-05T00:31:34;43.33;;;25.43;;
11121;SDS011;5615;49.304;10.576;2022-12-05T00:34:01;43.17;;;24.37;;
11121;SDS011;5615;49.304;10.576;2022-12-05T00:36:29;42.27;;;25.23;;
11121;SDS011;5615;49.304;10.576;2022-12-05T00:38:57;40.03;;;25.00;;
11121;SDS011;5615;49.304;10.576;2022-12-05T00:41:26;43.97;;;25.20;;
11121;SDS011;5615;49.304;10.576;2022-12-05T00:43:54;38.57;;;23.93;;
11121;SDS011;5615;49.304;10.576;2022-12-05T00:46:23;35.37;;;22.90;;
11121;SDS011;5615;49.304;10.576;2022-12-05T00:48:52;33.63;;;22.87;;
11121;SDS011;5615;49.304;10.576;2022-12-05T00:51:21;34.20;;;22.80;;
11121;SDS011;5615;49.304;10.576;2022-12-05T00:53:51;35.63;;;23.00;;
11121;SDS011;5615;49.304;10.576;2022-12-05T00:56:18;33.53;;;23.47;;
11121;SDS011;5615;49.304;10.576;2022-12-05T00:58:46;33.20;;;22.60;;
11121;SDS011;5615;49.304;10.576;2022-12-05T01:01:13;34.20;;;22.50;;
11121;SDS011;5615;49.304;10.576;2022-12-05T01:03:41;33.93;;;22.40;;
11121;SDS011;5615;49.304;10.576;2022-12-05T01:06:10;31.53;;;22.20;;
11121;SDS011;5615;49.304;10.576;2022-12-05T01:08:38;36.47;;;24.30;;
11121;SDS011;5615;49.304;10.576;2022-12-05T01:11:06;34.30;;;23.50;;
11121;SDS011;5615;49.304;10.576;2022-12-05T01:13:33;34.60;;;23.37;;
11121;SDS011;5615;49.304;10.576;2022-12-05T01:16:01;30.20;;;21.53;;
11121;SDS011;5615;49.304;10.576;2022-12-05T01:18:28;31.13;;;22.20;;
11121;SDS011;5615;49.304;10.576;2022-12-05T01:20:55;32.67;;;21.90;;
11121;SDS011;5615;49.304;10.576;2022-12-05T01:23:23;34.67;;;23.30;;
11121;SDS011;5615;49.304;10.576;2022-12-05T01:25:51;35.60;;;23.37;;
11121;SDS011;5615;49.304;10.576;2022-12-05T01:28:18;34.03;;;23.67;;
11121;SDS011;5615;49.304;10.576;2022-12-05T01:30:46;32.70;;;22.53;;
11121;SDS011;5615;49.304;10.576;2022-12-05T01:33:15;29.93;;;21.37;;
11121;SDS011;5615;49.304;10.576;2022-12-05T01:35:42;31.80;;;21.20;;
11121;SDS011;5615;49.304;10.576;2022-12-05T01:38:09;32.77;;;21.93;;
11121;SDS011;5615;49.304;10.576;2022-12-05T01:40:39;31.50;;;21.23;;
11121;SDS011;5615;49.304;10.576;2022-12-05T01:43:08;29.40;;;20.67;;
11121;SDS011;5615;49.304;10.576;2022-12-05T01:45:40;29.40;;;20.13;;
11121;SDS011;5615;49.304;10.576;2022-12-05T01:48:10;29.43;;;20.77;;
11121;SDS011;5615;49.304;10.576;2022-12-05T01:50:40;31.33;;;20.80;;
11121;SDS011;5615;49.304;10.576;2022-12-05T01:53:08;29.03;;;19.80;;
11121;SDS011;5615;49.304;10.576;2022-12-05T01:55:34;28.40;;;20.23;;
11121;SDS011;5615;49.304;10.576;2022-12-05T01:58:03;27.87;;;19.20;;
11121;SDS011;5615;49.304;10.576;2022-12-05T02:00:31;27.60;;;19.77;;
11121;SDS011;5615;49.304;10.576;2022-12-05T02:02:58;28.60;;;19.17;;
11121;SDS011;5615;49.304;10.576;2022-12-05T02:05:28;27.33;;;18.70;;
11121;SDS011;5615;49.304;10.576;2022-12-05T02:07:56;27.53;;;16.90;;
11121;SDS011;5615;49.304;10.576;2022-12-05T02:10:24;26.67;;;18.07;;
11121;SDS011;5615;49.304;10.576;2022-12-05T02:12:51;27.73;;;18.27;;
11121;SDS011;5615;49.304;10.576;2022-12-05T02:15:30;28.00;;;17.87;;
11121;SDS011;5615;49.304;10.576;2022-12-05T02:18:11;26.53;;;17.83;;
11121;SDS011;5615;49.304;10.576;2022-12-05T02:20:48;27.93;;;18.00;;
11121;SDS011;5615;49.304;10.576;2022-12-05T02:26:44;25.77;;;17.23;;
11121;SDS011;5615;49.304;10.576;2022-12-05T02:32:21;23.77;;;14.97;;
11121;SDS011;5615;49.304;10.576;2022-12-05T02:34:55;27.03;;;15.40;;
11121;SDS011;5615;49.304;10.576;2022-12-05T02:37:28;26.73;;;16.17;;
11121;SDS011;5615;49.304;10.576;2022-12-05T02:40:04;29.20;;;15.47;;
11121;SDS011;5615;49.304;10.576;2022-12-05T02:42:37;20.57;;;14.20;;
11121;SDS011;5615;49.304;10.576;2022-12-05T02:45:09;22.70;;;14.87;;
11121;SDS011;5615;49.304;10.576;2022-12-05T02:47:42;25.07;;;14.40;;
11121;SDS011;5615;49.304;10.576;2022-12-05T02:50:11;21.43;;;14.03;;
11121;SDS011;5615;49.304;10.576;2022-12-05T02:52:41;19.57;;;13.10;;
11121;SDS011;5615;49.304;10.576;2022-12-05T02:55:10;19.10;;;13.10;;
11121;SDS011;5615;49.304;10.576;2022-12-05T02:57:39;19.13;;;12.43;;
11121;SDS011;5615;49.304;10.576;2022-12-05T03:00:11;16.90;;;12.17;;
11121;SDS011;5615;49.304;10.576;2022-12-05T03:02:39;15.90;;;11.90;;
11121;SDS011;5615;49.304;10.576;2022-12-05T03:05:09;17.10;;;12.20;;
11121;SDS011;5615;49.304;10.576;2022-12-05T03:07:44;18.07;;;11.70;;
11121;SDS011;5615;49.304;10.576;2022-12-05T03:10:14;17.90;;;11.63;;
11121;SDS011;5615;49.304;10.576;2022-12-05T03:12:47;17.03;;;11.40;;
11121;SDS011;5615;49.304;10.576;2022-12-05T03:15:20;16.00;;;10.17;;
11121;SDS011;5615;49.304;10.576;2022-12-05T03:17:52;16.70;;;10.37;;
11121;SDS011;5615;49.304;10.576;2022-12-05T03:20:30;14.07;;;9.93;;
11121;SDS011;5615;49.304;10.576;2022-12-05T03:23:00;16.33;;;10.87;;
11121;SDS011;5615;49.304;10.576;2022-12-05T03:25:34;13.47;;;9.90;;
11121;SDS011;5615;49.304;10.576;2022-12-05T03:28:06;15.07;;;10.27;;
11121;SDS011;5615;49.304;10.576;2022-12-05T03:30:39;17.90;;;10.20;;
11121;SDS011;5615;49.304;10.576;2022-12-05T03:33:09;15.73;;;10.47;;
11121;SDS011;5615;49.304;10.576;2022-12-05T03:35:39;14.00;;;9.93;;
11121;SDS011;5615;49.304;10.576;2022-12-05T03:38:10;15.63;;;10.10;;
11121;SDS011;5615;49.304;10.576;2022-12-05T03:40:40;15.20;;;10.10;;
11121;SDS011;5615;49.304;10.576;2022-12-05T03:43:15;13.73;;;9.80;;
11121;SDS011;5615;49.304;10.576;2022-12-05T03:45:48;14.10;;;9.20;;
11121;SDS011;5615;49.304;10.576;2022-12-05T03:48:20;14.80;;;10.43;;
11121;SDS011;5615;49.304;10.576;2022-12-05T03:50:52;15.10;;;9.53;;
11121;SDS011;5615;49.304;10.576;2022-12-05T03:53:21;15.90;;;9.60;;
11121;SDS011;5615;49.304;10.576;2022-12-05T03:55:53;11.70;;;9.30;;
11121;SDS011;5615;49.304;10.576;2022-12-05T03:58:25;14.33;;;9.73;;
11121;SDS011;5615;49.304;10.576;2022-12-05T04:00:55;15.87;;;10.83;;
11121;SDS011;5615;49.304;10.576;2022-12-05T04:03:26;16.43;;;11.33;;
11121;SDS011;5615;49.304;10.576;2022-12-05T04:06:03;14.50;;;10.60;;
11121;SDS011;5615;49.304;10.576;2022-12-05T04:08:35;17.53;;;11.60;;
11121;SDS011;5615;49.304;10.576;2022-12-05T04:11:06;18.30;;;11.73;;
11121;SDS011;5615;49.304;10.576;2022-12-05T04:13:37;21.47;;;12.57;;
11121;SDS011;5615;49.304;10.576;2022-12-05T04:16:08;21.13;;;13.47;;
11121;SDS011;5615;49.304;10.576;2022-12-05T04:18:57;21.03;;;13.47;;
11121;SDS011;5615;49.304;10.576;2022-12-05T04:21:29;22.70;;;14.43;;
11121;SDS011;5615;49.304;10.576;2022-12-05T04:24:03;25.17;;;15.27;;
11121;SDS011;5615;49.304;10.576;2022-12-05T04:26:52;24.93;;;13.53;;
11121;SDS011;5615;49.304;10.576;2022-12-05T04:29:31;25.13;;;14.20;;
11121;SDS011;5615;49.304;10.576;2022-12-05T04:32:03;24.27;;;14.40;;
11121;SDS011;5615;49.304;10.576;2022-12-05T04:34:35;24.63;;;15.53;;
11121;SDS011;5615;49.304;10.576;2022-12-05T04:37:04;25.70;;;14.50;;
11121;SDS011;5615;49.304;10.576;2022-12-05T04:39:35;29.43;;;15.03;;
11121;SDS011;5615;49.304;10.576;2022-12-05T04:42:06;28.33;;;15.60;;
11121;SDS011;5615;49.304;10.576;2022-12-05T04:44:37;32.10;;;17.37;;
11121;SDS011;5615;49.304;10.576;2022-12-05T04:47:08;31.00;;;16.67;;
11121;SDS011;5615;49.304;10.576;2022-12-05T04:49:40;28.40;;;15.70;;
11121;SDS011;5615;49.304;10.576;2022-12-05T04:52:09;32.23;;;15.83;;
11121;SDS011;5615;49.304;10.576;2022-12-05T04:54:38;27.87;;;15.33;;
11121;SDS011;5615;49.304;10.576;2022-12-05T04:57:09;32.60;;;17.20;;
11121;SDS011;5615;49.304;10.576;2022-12-05T04:59:40;30.10;;;16.03;;
11121;SDS011;5615;49.304;10.576;2022-12-05T05:02:08;31.37;;;17.73;;
11121;SDS011;5615;49.304;10.576;2022-12-05T05:04:38;67.23;;;19.23;;
11121;SDS011;5615;49.304;10.576;2022-12-05T05:07:09;41.10;;;19.73;;
11121;SDS011;5615;49.304;10.576;2022-12-05T05:09:37;38.93;;;19.97;;
11121;SDS011;5615;49.304;10.576;2022-12-05T05:12:05;41.73;;;19.97;;
11121;SDS011;5615;49.304;10.576;2022-12-05T05:14:33;43.17;;;21.20;;
11121;SDS011;5615;49.304;10.576;2022-12-05T05:17:00;43.23;;;20.33;;
11121;SDS011;5615;49.304;10.576;2022-12-05T05:19:27;41.70;;;19.43;;
11121;SDS011;5615;49.304;10.576;2022-12-05T05:21:55;38.47;;;20.23;;
11121;SDS011;5615;49.304;10.576;2022-12-05T05:24:22;46.57;;;22.00;;
11121;SDS011;5615;49.304;10.576;2022-12-05T05:26:50;41.20;;;20.13;;
11121;SDS011;5615;49.304;10.576;2022-12-05T05:29:17;34.37;;;17.87;;
11121;SDS011;5615;49.304;10.576;2022-12-05T05:31:44;36.03;;;18.57;;
11121;SDS011;5615;49.304;10.576;2022-12-05T05:34:11;35.40;;;18.40;;
11121;SDS011;5615;49.304;10.576;2022-12-05T05:36:40;32.83;;;18.83;;
11121;SDS011;5615;49.304;10.576;2022-12-05T05:39:09;31.17;;;19.03;;
11121;SDS011;5615;49.304;10.576;2022-12-05T05:41:37;31.67;;;18.70;;
11121;SDS011;5615;49.304;10.576;2022-12-05T05:44:03;32.93;;;18.17;;
11121;SDS011;5615;49.304;10.576;2022-12-05T05:46:31;35.47;;;18.67;;
11121;SDS011;5615;49.304;10.576;2022-12-05T05:48:59;34.27;;;18.27;;
11121;SDS011;5615;49.304;10.576;2022-12-05T05:51:26;33.17;;;18.13;;
11121;SDS011;5615;49.304;10.576;2022-12-05T05:53:54;34.23;;;18.50;;
11121;SDS011;5615;49.304;10.576;2022-12-05T05:56:22;29.90;;;16.80;;
11121;SDS011;5615;49.304;10.576;2022-12-05T05:58:53;30.17;;;17.30;;
11121;SDS011;5615;49.304;10.576;2022-12-05T06:01:20;29.47;;;17.30;;
11121;SDS011;5615;49.304;10.576;2022-12-05T06:03:47;31.47;;;17.77;;
11121;SDS011;5615;49.304;10.576;2022-12-05T06:06:15;29.30;;;18.10;;
11121;SDS011;5615;49.304;10.576;2022-12-05T06:08:43;43.27;;;25.57;;
11121;SDS011;5615;49.304;10.576;2022-12-05T06:11:11;74.83;;;41.53;;
11121;SDS011;5615;49.304;10.576;2022-12-05T06:13:40;31.50;;;18.33;;
11121;SDS011;5615;49.304;10.576;2022-12-05T06:16:08;29.17;;;16.80;;
11121;SDS011;5615;49.304;10.576;2022-12-05T06:18:36;39.47;;;26.63;;
11121;SDS011;5615;49.304;10.576;2022-12-05T06:21:03;33.00;;;19.90;;
11121;SDS011;5615;49.304;10.576;2022-12-05T06:23:32;32.47;;;17.77;;
11121;SDS011;5615;49.304;10.576;2022-12-05T06:25:59;31.33;;;18.03;;
11121;SDS011;5615;49.304;10.576;2022-12-05T06:28:26;32.10;;;19.47;;
11121;SDS011;5615;49.304;10.576;2022-12-05T06:30:54;36.13;;;17.63;;
11121;SDS011;5615;49.304;10.576;2022-12-05T06:33:21;28.10;;;17.30;;
11121;SDS011;5615;49.304;10.576;2022-12-05T06:35:48;33.10;;;18.20;;
11121;SDS011;5615;49.304;10.576;2022-12-05T06:38:14;31.73;;;17.53;;
11121;SDS011;5615;49.304;10.576;2022-12-05T06:40:41;31.13;;;17.10;;
11121;SDS011;5615;49.304;10.576;2022-12-05T06:43:09;29.47;;;17.30;;
11121;SDS011;5615;49.304;10.576;2022-12-05T06:45:36;33.10;;;19.10;;
11121;SDS011;5615;49.304;10.576;2022-12-05T06:48:05;32.43;;;18.00;;
11121;SDS011;5615;49.304;10.576;2022-12-05T06:50:32;31.60;;;18.37;;
11121;SDS011;5615;49.304;10.576;2022-12-05T06:52:58;33.37;;;18.43;;
11121;SDS011;5615;49.304;10.576;2022-12-05T06:55:25;32.53;;;17.97;;
11121;SDS011;5615;49.304;10.576;2022-12-05T06:57:51;33.50;;;19.00;;
11121;SDS011;5615;49.304;10.576;2022-12-05T07:00:18;33.90;;;17.83;;
11121;SDS011;5615;49.304;10.576;2022-12-05T07:03:03;32.97;;;17.93;;
11121;SDS011;5615;49.304;10.576;2022-12-05T07:05:31;33.33;;;17.60;;
11121;SDS011;5615;49.304;10.576;2022-12-05T07:07:58;37.33;;;18.23;;
11121;SDS011;5615;49.304;10.576;2022-12-05T07:10:25;32.93;;;18.30;;
11121;SDS011;5615;49.304;10.576;2022-12-05T07:12:51;35.57;;;18.37;;
11121;SDS011;5615;49.304;10.576;2022-12-05T07:15:18;32.80;;;17.57;;
11121;SDS011;5615;49.304;10.576;2022-12-05T07:17:44;39.70;;;19.83;;
11121;SDS011;5615;49.304;10.576;2022-12-05T07:20:12;35.93;;;18.57;;
11121;SDS011;5615;49.304;10.576;2022-12-05T07:22:41;34.10;;;18.13;;
11121;SDS011;5615;49.304;10.576;2022-12-05T07:25:08;38.33;;;19.07;;
11121;SDS011;5615;49.304;10.576;2022-12-05T07:27:35;34.17;;;17.90;;
11121;SDS011;5615;49.304;10.576;2022-12-05T07:30:02;33.33;;;18.17;;
11121;SDS011;5615;49.304;10.576;2022-12-05T07:32:30;34.00;;;17.57;;
11121;SDS011;5615;49.304;10.576;2022-12-05T07:34:58;36.07;;;18.30;;
11121;SDS011;5615;49.304;10.576;2022-12-05T07:37:26;31.23;;;17.73;;
11121;SDS011;5615;49.304;10.576;2022-12-05T07:39:52;31.00;;;16.90;;
11121;SDS011;5615;49.304;10.576;2022-12-05T07:42:19;29.37;;;17.80;;
11121;SDS011;5615;49.304;10.576;2022-12-05T07:44:46;31.30;;;17.93;;
11121;SDS011;5615;49.304;10.576;2022-12-05T07:47:12;31.03;;;16.90;;
11121;SDS011;5615;49.304;10.576;2022-12-05T07:49:39;28.43;;;16.70;;
11121;SDS011;5615;49.304;10.576;2022-12-05T07:52:06;34.20;;;17.70;;
11121;SDS011;5615;49.304;10.576;2022-12-05T07:54:35;31.63;;;17.83;;
11121;SDS011;5615;49.304;10.576;2022-12-05T07:57:01;31.00;;;16.83;;
11121;SDS011;5615;49.304;10.576;2022-12-05T07:59:28;32.10;;;18.47;;
11121;SDS011;5615;49.304;10.576;2022-12-05T08:01:55;28.70;;;16.73;;
11121;SDS011;5615;49.304;10.576;2022-12-05T08:04:21;26.07;;;16.53;;
11121;SDS011;5615;49.304;10.576;2022-12-05T08:06:48;30.53;;;17.53;;
11121;SDS011;5615;49.304;10.576;2022-12-05T08:09:15;29.63;;;17.33;;
11121;SDS011;5615;49.304;10.576;2022-12-05T08:11:43;25.73;;;16.83;;
11121;SDS011;5615;49.304;10.576;2022-12-05T08:14:09;25.83;;;16.27;;
11121;SDS011;5615;49.304;10.576;2022-12-05T08:16:36;28.83;;;16.83;;
11121;SDS011;5615;49.304;10.576;2022-12-05T08:19:03;49.77;;;17.83;;
11121;SDS011;5615;49.304;10.576;2022-12-05T08:21:31;41.83;;;24.43;;
11121;SDS011;5615;49.304;10.576;2022-12-05T08:23:59;32.23;;;19.27;;
11121;SDS011;5615;49.304;10.576;2022-12-05T08:26:29;27.47;;;15.97;;
11121;SDS011;5615;49.304;10.576;2022-12-05T08:29:01;26.10;;;16.07;;
11121;SDS011;5615;49.304;10.576;2022-12-05T08:31:30;24.23;;;16.00;;
11121;SDS011;5615;49.304;10.576;2022-12-05T08:33:58;27.73;;;16.33;;
11121;SDS011;5615;49.304;10.576;2022-12-05T08:36:26;24.53;;;15.70;;
11121;SDS011;5615;49.304;10.576;2022-12-05T08:38:54;25.00;;;15.50;;
11121;SDS011;5615;49.304;10.576;2022-12-05T08:41:21;27.57;;;16.77;;
11121;SDS011;5615;49.304;10.576;2022-12-05T08:43:52;25.27;;;16.57;;
11121;SDS011;5615;49.304;10.576;2022-12-05T08:46:20;24.77;;;16.27;;
11121;SDS011;5615;49.304;10.576;2022-12-05T08:48:47;26.20;;;16.77;;
11121;SDS011;5615;49.304;10.576;2022-12-05T08:51:14;26.03;;;15.93;;
11121;SDS011;5615;49.304;10.576;2022-12-05T08:53:40;27.77;;;16.77;;
11121;SDS011;5615;49.304;10.576;2022-12-05T08:56:07;26.93;;;16.17;;
11121;SDS011;5615;49.304;10.576;2022-12-05T08:58:35;27.40;;;16.30;;
11121;SDS011;5615;49.304;10.576;2022-12-05T09:01:03;25.43;;;16.00;;
11121;SDS011;5615;49.304;10.576;2022-12-05T09:03:31;26.40;;;16.60;;
11121;SDS011;5615;49.304;10.576;2022-12-05T09:06:05;28.87;;;16.17;;
11121;SDS011;5615;49.304;10.576;2022-12-05T09:08:32;29.40;;;17.50;;
11121;SDS011;5615;49.304;10.576;2022-12-05T09:10:59;27.33;;;16.67;;
11121;SDS011;5615;49.304;10.576;2022-12-05T09:13:29;27.20;;;16.43;;
11121;SDS011;5615;49.304;10.576;2022-12-05T09:15:56;28.97;;;18.03;;
11121;SDS011;5615;49.304;10.576;2022-12-05T09:18:22;28.13;;;17.23;;
11121;SDS011;5615;49.304;10.576;2022-12-05T09:20:50;26.30;;;16.07;;
11121;SDS011;5615;49.304;10.576;2022-12-05T09:23:17;24.50;;;15.90;;
11121;SDS011;5615;49.304;10.576;2022-12-05T09:25:43;25.43;;;16.50;;
11121;SDS011;5615;49.304;10.576;2022-12-05T09:28:10;23.87;;;15.97;;
11121;SDS011;5615;49.304;10.576;2022-12-05T09:30:37;25.97;;;16.57;;
11121;SDS011;5615;49.304;10.576;2022-12-05T09:33:03;22.47;;;15.00;;
11121;SDS011;5615;49.304;10.576;2022-12-05T09:35:30;26.30;;;16.27;;
11121;SDS011;5615;49.304;10.576;2022-12-05T09:37:58;25.13;;;16.37;;
11121;SDS011;5615;49.304;10.576;2022-12-05T09:40:25;23.00;;;15.60;;
11121;SDS011;5615;49.304;10.576;2022-12-05T09:42:56;23.90;;;15.07;;
11121;SDS011;5615;49.304;10.576;2022-12-05T09:45:32;23.13;;;15.10;;
11121;SDS011;5615;49.304;10.576;2022-12-05T09:48:04;22.93;;;15.10;;
11121;SDS011;5615;49.304;10.576;2022-12-05T09:50:38;23.50;;;15.37;;
11121;SDS011;5615;49.304;10.576;2022-12-05T09:53:12;23.73;;;15.57;;
11121;SDS011;5615;49.304;10.576;2022-12-05T09:55:50;25.30;;;16.07;;
11121;SDS011;5615;49.304;10.576;2022-12-05T09:58:21;23.63;;;15.80;;
11121;SDS011;5615;49.304;10.576;2022-12-05T10:00:54;25.57;;;16.47;;
11121;SDS011;5615;49.304;10.576;2022-12-05T10:03:28;26.57;;;17.00;;
11121;SDS011;5615;49.304;10.576;2022-12-05T10:06:05;25.23;;;16.77;;
11121;SDS011;5615;49.304;10.576;2022-12-05T10:08:43;22.63;;;15.37;;
11121;SDS011;5615;49.304;10.576;2022-12-05T10:11:35;23.87;;;15.67;;
11121;SDS011;5615;49.304;10.576;2022-12-05T10:14:07;27.47;;;16.77;;
11121;SDS011;5615;49.304;10.576;2022-12-05T10:16:44;29.20;;;17.40;;
11121;SDS011;5615;49.304;10.576;2022-12-05T10:19:14;27.50;;;17.07;;
11121;SDS011;5615;49.304;10.576;2022-12-05T10:21:46;25.70;;;16.63;;
11121;SDS011;5615;49.304;10.576;2022-12-05T10:24:21;24.03;;;15.33;;
11121;SDS011;5615;49.304;10.576;2022-12-05T10:26:55;24.83;;;15.53;;
11121;SDS011;5615;49.304;10.576;2022-12-05T10:29:26;27.10;;;16.30;;
11121;SDS011;5615;49.304;10.576;2022-12-05T10:31:55;25.30;;;15.23;;
11121;SDS011;5615;49.304;10.576;2022-12-05T10:34:29;22.67;;;15.17;;
11121;SDS011;5615;49.304;10.576;2022-12-05T10:37:00;24.10;;;15.60;;
11121;SDS011;5615;49.304;10.576;2022-12-05T10:39:35;121.57;;;19.80;;
11121;SDS011;5615;49.304;10.576;2022-12-05T10:42:02;25.13;;;15.80;;
11121;SDS011;5615;49.304;10.576;2022-12-05T10:44:29;25.93;;;15.60;;
11121;SDS011;5615;49.304;10.576;2022-12-05T10:46:57;26.47;;;17.40;;
11121;SDS011;5615;49.304;10.576;2022-12-05T10:49:23;25.07;;;15.83;;
11121;SDS011;5615;49.304;10.576;2022-12-05T10:51:51;29.17;;;17.00;;
11121;SDS011;5615;49.304;10.576;2022-12-05T10:54:19;27.13;;;16.13;;
11121;SDS011;5615;49.304;10.576;2022-12-05T10:56:50;26.70;;;17.87;;
11121;SDS011;5615;49.304;10.576;2022-12-05T10:59:19;25.53;;;16.73;;
11121;SDS011;5615;49.304;10.576;2022-12-05T11:01:47;29.20;;;17.17;;
11121;SDS011;5615;49.304;10.576;2022-12-05T11:04:18;26.80;;;17.23;;
11121;SDS011;5615;49.304;10.576;2022-12-05T11:06:51;28.53;;;16.33;;
11121;SDS011;5615;49.304;10.576;2022-12-05T11:09:23;26.37;;;17.30;;
11121;SDS011;5615;49.304;10.576;2022-12-05T11:14:53;27.97;;;16.57;;
11121;SDS011;5615;49.304;10.576;2022-12-05T11:17:22;33.17;;;18.17;;
11121;SDS011;5615;49.304;10.576;2022-12-05T11:19:51;28.50;;;17.20;;
11121;SDS011;5615;49.304;10.576;2022-12-05T11:22:17;26.00;;;16.73;;
11121;SDS011;5615;49.304;10.576;2022-12-05T11:24:44;28.47;;;17.27;;
11121;SDS011;5615;49.304;10.576;2022-12-05T11:27:24;26.07;;;16.97;;
11121;SDS011;5615;49.304;10.576;2022-12-05T11:29:53;29.03;;;17.37;;
11121;SDS011;5615;49.304;10.576;2022-12-05T11:32:24;24.97;;;16.70;;
11121;SDS011;5615;49.304;10.576;2022-12-05T11:34:53;26.57;;;16.40;;
11121;SDS011;5615;49.304;10.576;2022-12-05T11:37:27;22.80;;;15.47;;
11121;SDS011;5615;49.304;10.576;2022-12-05T11:39:58;23.17;;;14.97;;
11121;SDS011;5615;49.304;10.576;2022-12-05T11:42:31;23.17;;;15.63;;
11121;SDS011;5615;49.304;10.576;2022-12-05T11:45:11;23.97;;;16.07;;
11121;SDS011;5615;49.304;10.576;2022-12-05T11:47:58;21.73;;;15.00;;
11121;SDS011;5615;49.304;10.576;2022-12-05T11:50:39;25.00;;;15.73;;
11121;SDS011;5615;49.304;10.576;2022-12-05T11:53:16;23.23;;;15.77;;
11121;SDS011;5615;49.304;10.576;2022-12-05T11:56:02;26.07;;;15.30;;
11121;SDS011;5615;49.304;10.576;2022-12-05T11:58:45;24.27;;;16.20;;
11121;SDS011;5615;49.304;10.576;2022-12-05T12:01:29;25.20;;;16.70;;
11121;SDS011;5615;49.304;10.576;2022-12-05T12:04:11;25.87;;;16.43;;
11121;SDS011;5615;49.304;10.576;2022-12-05T12:07:01;26.00;;;15.93;;
11121;SDS011;5615;49.304;10.576;2022-12-05T12:09:43;29.87;;;16.93;;
11121;SDS011;5615;49.304;10.576;2022-12-05T12:12:19;26.97;;;17.80;;
11121;SDS011;5615;49.304;10.576;2022-12-05T12:14:55;27.73;;;17.53;;
11121;SDS011;5615;49.304;10.576;2022-12-05T12:17:30;31.40;;;19.27;;
11121;SDS011;5615;49.304;10.576;2022-12-05T12:20:17;28.30;;;17.60;;
11121;SDS011;5615;49.304;10.576;2022-12-05T12:23:03;28.50;;;18.20;;
11121;SDS011;5615;49.304;10.576;2022-12-05T12:25:41;32.53;;;18.30;;
11121;SDS011;5615;49.304;10.576;2022-12-05T12:28:19;30.07;;;18.20;;
11121;SDS011;5615;49.304;10.576;2022-12-05T12:31:01;30.93;;;18.80;;
11121;SDS011;5615;49.304;10.576;2022-12-05T12:33:49;32.00;;;20.10;;
11121;SDS011;5615;49.304;10.576;2022-12-05T12:36:23;32.37;;;19.13;;
11121;SDS011;5615;49.304;10.576;2022-12-05T12:39:02;29.63;;;19.77;;
11121;SDS011;5615;49.304;10.576;2022-12-05T12:41:45;35.37;;;20.40;;
11121;SDS011;5615;49.304;10.576;2022-12-05T12:44:31;30.03;;;18.57;;
11121;SDS011;5615;49.304;10.576;2022-12-05T12:47:25;29.47;;;18.33;;
11121;SDS011;5615;49.304;10.576;2022-12-05T12:50:05;27.93;;;17.90;;
11121;SDS011;5615;49.304;10.576;2022-12-05T12:52:44;27.47;;;19.07;;
11121;SDS011;5615;49.304;10.576;2022-12-05T12:55:37;31.97;;;20.33;;
11121;SDS011;5615;49.304;10.576;2022-12-05T12:58:14;50.23;;;37.40;;
11121;SDS011;5615;49.304;10.576;2022-12-05T13:00:53;31.57;;;21.47;;
11121;SDS011;5615;49.304;10.576;2022-12-05T13:03:29;31.07;;;21.43;;
11121;SDS011;5615;49.304;10.576;2022-12-05T13:06:03;31.37;;;21.40;;
11121;SDS011;5615;49.304;10.576;2022-12-05T13:08:36;24.77;;;17.30;;
11121;SDS011;5615;49.304;10.576;2022-12-05T13:11:08;28.23;;;18.30;;
11121;SDS011;5615;49.304;10.576;2022-12-05T13:13:38;28.17;;;19.07;;
11121;SDS011;5615;49.304;10.576;2022-12-05T13:16:09;26.33;;;18.00;;
11121;SDS011;5615;49.304;10.576;2022-12-05T13:18:43;21.70;;;15.20;;
11121;SDS011;5615;49.304;10.576;2022-12-05T13:21:11;24.60;;;14.93;;
11121;SDS011;5615;49.304;10.576;2022-12-05T13:23:40;22.27;;;16.07;;
11121;SDS011;5615;49.304;10.576;2022-12-05T13:26:10;20.90;;;14.90;;
11121;SDS011;5615;49.304;10.576;2022-12-05T13:28:38;20.83;;;15.23;;
11121;SDS011;5615;49.304;10.576;2022-12-05T13:31:14;23.07;;;15.83;;
11121;SDS011;5615;49.304;10.576;2022-12-05T13:33:45;21.13;;;14.53;;
11121;SDS011;5615;49.304;10.576;2022-12-05T13:36:13;23.10;;;15.17;;
11121;SDS011;5615;49.304;10.576;2022-12-05T13:39:01;22.77;;;14.97;;
11121;SDS011;5615;49.304;10.576;2022-12-05T13:41:47;20.30;;;15.40;;
11121;SDS011;5615;49.304;10.576;2022-12-05T13:44:35;21.73;;;14.57;;
11121;SDS011;5615;49.304;10.576;2022-12-05T13:47:05;19.33;;;14.63;;
11121;SDS011;5615;49.304;10.576;2022-12-05T13:49:43;17.07;;;13.30;;
11121;SDS011;5615;49.304;10.576;2022-12-05T13:52:14;18.33;;;13.27;;
11121;SDS011;5615;49.304;10.576;2022-12-05T13:54:53;19.23;;;13.80;;
11121;SDS011;5615;49.304;10.576;2022-12-05T13:57:43;16.67;;;12.70;;
11121;SDS011;5615;49.304;10.576;2022-12-05T14:00:19;19.80;;;14.13;;
11121;SDS011;5615;49.304;10.576;2022-12-05T14:02:51;18.40;;;13.83;;
11121;SDS011;5615;49.304;10.576;2022-12-05T14:11:12;17.27;;;13.67;;
11121;SDS011;5615;49.304;10.576;2022-12-05T14:13:39;18.20;;;12.67;;
11121;SDS011;5615;49.304;10.576;2022-12-05T14:22:16;17.27;;;13.17;;
11121;SDS011;5615;49.304;10.576;2022-12-05T14:25:03;19.47;;;13.97;;
11121;SDS011;5615;49.304;10.576;2022-12-05T14:27:42;19.30;;;13.23;;
11121;SDS011;5615;49.304;10.576;2022-12-05T14:30:18;19.43;;;14.27;;
11121;SDS011;5615;49.304;10.576;2022-12-05T14:32:47;20.57;;;14.40;;
11121;SDS011;5615;49.304;10.576;2022-12-05T14:35:18;21.10;;;15.00;;
11121;SDS011;5615;49.304;10.576;2022-12-05T14:37:52;17.13;;;12.73;;
11121;SDS011;5615;49.304;10.576;2022-12-05T14:40:23;18.00;;;13.63;;
11121;SDS011;5615;49.304;10.576;2022-12-05T14:42:55;18.67;;;13.20;;
11121;SDS011;5615;49.304;10.576;2022-12-05T14:45:28;17.63;;;13.63;;
11121;SDS011;5615;49.304;10.576;2022-12-05T14:47:57;19.57;;;13.87;;
11121;SDS011;5615;49.304;10.576;2022-12-05T14:50:36;15.70;;;12.63;;
11121;SDS011;5615;49.304;10.576;2022-12-05T14:53:17;19.50;;;13.03;;
11121;SDS011;5615;49.304;10.576;2022-12-05T14:55:51;16.30;;;12.60;;
11121;SDS011;5615;49.304;10.576;2022-12-05T14:58:25;18.63;;;13.30;;
11121;SDS011;5615;49.304;10.576;2022-12-05T15:00:58;17.93;;;13.37;;
11121;SDS011;5615;49.304;10.576;2022-12-05T15:03:29;19.50;;;13.40;;
11121;SDS011;5615;49.304;10.576;2022-12-05T15:05:57;17.33;;;12.43;;